createdAt,value
2022-12-01T00:01:09.734Z,85.69
2022-12-01T00:03:37.176Z,85.42
2022-12-01T00:06:05.836Z,85.58
2022-12-01T00:08:33.460Z,85.66
2022-12-01T00:11:04.839Z,85.82
2022-12-01T00:13:32.336Z,86.30
2022-12-01T00:16:09.037Z,85.96
2022-12-01T00:18:35.950Z,86.21
2022-12-01T00:21:02.816Z,85.93
2022-12-01T00:23:29.709Z,85.76
2022-12-01T00:26:03.058Z,85.93
2022-12-01T00:28:29.965Z,85.75
2022-12-01T00:30:56.834Z,85.77
2022-12-01T00:33:23.814Z,85.88
2022-12-01T00:35:50.711Z,86.21
2022-12-01T00:38:17.621Z,85.66
2022-12-01T00:40:44.554Z,85.94
2022-12-01T00:43:11.483Z,86.49
2022-12-01T00:45:38.386Z,85.96
2022-12-01T00:48:05.369Z,87.01
2022-12-01T00:50:32.277Z,86.48
2022-12-01T00:52:59.245Z,87.07
2022-12-01T00:55:26.408Z,86.46
2022-12-01T00:57:53.335Z,87.05
2022-12-01T01:00:20.605Z,86.34
2022-12-01T01:02:47.677Z,86.45
2022-12-01T01:05:14.670Z,86.47
2022-12-01T01:07:41.605Z,85.98
2022-12-01T01:10:08.862Z,86.36
2022-12-01T01:12:35.844Z,86.64
2022-12-01T01:15:03.051Z,86.74
2022-12-01T01:17:29.969Z,87.49
2022-12-01T01:19:56.857Z,86.91
2022-12-01T01:22:23.744Z,87.46
2022-12-01T01:24:50.679Z,87.06
2022-12-01T01:27:17.876Z,86.84
2022-12-01T01:29:44.803Z,86.91
2022-12-01T01:32:11.717Z,86.65
2022-12-01T01:34:38.587Z,86.23
2022-12-01T01:37:05.457Z,86.32
2022-12-01T01:39:32.398Z,85.94
2022-12-01T01:41:59.270Z,86.16
2022-12-01T01:44:49.629Z,86.27
2022-12-01T01:47:33.475Z,87.03
2022-12-01T01:50:06.712Z,86.92
2022-12-01T01:52:42.550Z,86.26
2022-12-01T01:55:09.895Z,86.60
2022-12-01T01:57:38.050Z,86.88
2022-12-01T02:00:10.120Z,87.03
2022-12-01T02:02:45.410Z,86.34
2022-12-01T02:05:18.143Z,86.50
2022-12-01T02:08:02.839Z,86.22
2022-12-01T02:10:56.775Z,86.77
2022-12-01T02:13:55.923Z,86.80
2022-12-01T02:17:03.336Z,86.09
2022-12-01T02:20:20.334Z,86.79
2022-12-01T02:23:19.658Z,86.37
2022-12-01T02:26:41.235Z,86.10
2022-12-01T02:29:35.821Z,86.36
2022-12-01T02:32:30.324Z,87.18
2022-12-01T02:35:03.926Z,87.03
2022-12-01T02:37:59.899Z,86.76
2022-12-01T02:40:43.693Z,86.69
2022-12-01T02:43:27.644Z,86.63
2022-12-01T02:46:02.637Z,87.02
2022-12-01T02:48:43.234Z,86.73
2022-12-01T02:51:16.553Z,87.39
2022-12-01T02:53:43.855Z,87.58
2022-12-01T02:56:13.437Z,87.22
2022-12-01T02:58:40.573Z,87.45
2022-12-01T03:01:24.833Z,87.46
2022-12-01T03:03:59.129Z,87.38
2022-12-01T03:06:32.220Z,87.25
2022-12-01T03:09:17.203Z,87.57
2022-12-01T03:12:08.285Z,87.48
2022-12-01T03:15:25.468Z,87.14
2022-12-01T03:17:55.456Z,87.37
2022-12-01T03:20:37.677Z,87.90
2022-12-01T03:23:18.327Z,88.11
2022-12-01T03:25:48.925Z,88.27
2022-12-01T03:28:21.872Z,87.37
2022-12-01T03:30:53.039Z,87.43
2022-12-01T03:33:34.504Z,87.62
2022-12-01T03:36:07.372Z,86.85
2022-12-01T03:38:36.554Z,87.58
2022-12-01T03:41:15.097Z,87.93
2022-12-01T03:43:49.380Z,87.13
2022-12-01T03:46:25.669Z,87.73
2022-12-01T03:48:55.443Z,87.86
2022-12-01T03:51:48.494Z,87.92
2022-12-01T03:54:55.628Z,87.89
2022-12-01T03:57:58.622Z,87.36
2022-12-01T04:00:25.589Z,87.96
2022-12-01T04:02:57.671Z,88.60
2022-12-01T04:05:26.319Z,87.92
2022-12-01T04:07:54.133Z,87.92
2022-12-01T04:10:21.239Z,87.45
2022-12-01T04:12:48.309Z,87.51
2022-12-01T04:15:15.565Z,87.22
2022-12-01T04:17:44.499Z,87.10
2022-12-01T04:20:14.883Z,86.85
2022-12-01T04:22:42.144Z,86.46
2022-12-01T04:25:10.281Z,86.78
2022-12-01T04:27:38.000Z,87.01
2022-12-01T04:30:06.698Z,86.42
2022-12-01T04:32:40.856Z,86.99
2022-12-01T04:35:09.891Z,86.38
2022-12-01T04:37:37.524Z,86.37
2022-12-01T04:40:06.032Z,86.14
2022-12-01T04:42:33.115Z,86.24
2022-12-01T04:45:00.039Z,87.09
2022-12-01T04:47:26.939Z,86.78
2022-12-01T04:49:54.669Z,86.84
2022-12-01T04:52:21.588Z,86.63
2022-12-01T04:54:48.485Z,86.14
2022-12-01T04:57:17.075Z,86.51
2022-12-01T04:59:43.976Z,86.79
2022-12-01T05:02:10.974Z,86.51
2022-12-01T05:04:41.569Z,86.57
2022-12-01T05:07:08.804Z,86.41
2022-12-01T05:09:35.869Z,87.26
2022-12-01T05:12:02.888Z,86.53
2022-12-01T05:14:29.812Z,86.55
2022-12-01T05:16:58.350Z,86.91
2022-12-01T05:19:43.900Z,86.29
2022-12-01T05:22:10.764Z,86.02
2022-12-01T05:24:37.683Z,86.96
2022-12-01T05:27:04.708Z,87.32
2022-12-01T05:29:33.242Z,87.26
2022-12-01T05:32:00.347Z,86.47
2022-12-01T05:34:27.405Z,87.28
2022-12-01T05:36:54.352Z,86.77
2022-12-01T05:39:21.259Z,86.79
2022-12-01T05:41:48.136Z,87.08
2022-12-01T05:44:15.111Z,86.50
2022-12-01T05:46:42.002Z,86.62
2022-12-01T05:49:08.882Z,86.09
2022-12-01T05:51:35.802Z,86.46
2022-12-01T05:54:03.014Z,86.75
2022-12-01T05:56:29.948Z,86.47
2022-12-01T05:58:56.929Z,86.52
2022-12-01T06:01:23.987Z,86.70
2022-12-01T06:03:50.921Z,86.04
2022-12-01T06:06:17.894Z,86.40
2022-12-01T06:08:44.809Z,86.88
2022-12-01T06:11:11.832Z,86.96
2022-12-01T06:13:38.950Z,86.46
2022-12-01T06:16:06.824Z,86.17
2022-12-01T06:18:36.950Z,86.71
2022-12-01T06:21:05.966Z,86.67
2022-12-01T06:23:33.528Z,86.07
2022-12-01T06:26:00.437Z,86.12
2022-12-01T06:28:27.358Z,86.32
2022-12-01T06:30:59.326Z,86.92
2022-12-01T06:33:29.603Z,86.38
2022-12-01T06:36:01.530Z,86.53
2022-12-01T06:38:31.814Z,86.36
2022-12-01T06:40:58.695Z,86.83
2022-12-01T06:43:25.601Z,86.57
2022-12-01T06:45:57.820Z,86.56
2022-12-01T06:48:28.026Z,86.98
2022-12-01T06:50:58.519Z,86.46
2022-12-01T06:53:27.558Z,86.95
2022-12-01T06:55:55.382Z,86.72
2022-12-01T06:58:22.757Z,87.07
2022-12-01T07:00:52.223Z,87.02
2022-12-01T07:03:19.818Z,87.09
2022-12-01T07:06:01.266Z,87.19
2022-12-01T07:08:30.185Z,86.97
2022-12-01T07:11:08.364Z,87.07
2022-12-01T07:13:35.939Z,86.77
2022-12-01T07:16:03.584Z,86.52
2022-12-01T07:18:31.668Z,86.82
2022-12-01T07:21:03.105Z,87.02
2022-12-01T07:23:30.433Z,87.69
2022-12-01T07:26:05.013Z,87.61
2022-12-01T07:28:32.216Z,87.39
2022-12-01T07:31:04.196Z,87.87
2022-12-01T07:33:31.520Z,88.12
2022-12-01T07:35:58.782Z,87.87
2022-12-01T07:38:27.530Z,88.17
2022-12-01T07:40:54.498Z,88.09
2022-12-01T07:43:21.462Z,87.97
2022-12-01T07:45:48.377Z,87.33
2022-12-01T07:48:15.321Z,87.74
2022-12-01T07:50:42.198Z,87.68
2022-12-01T07:53:09.100Z,88.29
2022-12-01T07:55:37.281Z,88.04
2022-12-01T07:58:04.242Z,88.41
2022-12-01T08:00:31.138Z,88.26
2022-12-01T08:02:58.129Z,88.23
2022-12-01T08:05:25.035Z,87.34
2022-12-01T08:07:54.183Z,87.67
2022-12-01T08:10:21.042Z,87.76
2022-12-01T08:12:48.282Z,87.95
2022-12-01T08:15:15.239Z,87.95
2022-12-01T08:17:42.142Z,87.96
2022-12-01T08:20:09.290Z,87.88
2022-12-01T08:22:36.175Z,87.61
2022-12-01T08:25:03.120Z,88.25
2022-12-01T08:27:30.019Z,87.69
2022-12-01T08:29:56.914Z,87.78
2022-12-01T08:32:23.839Z,88.09
2022-12-01T08:34:53.587Z,88.21
2022-12-01T08:37:20.710Z,87.81
2022-12-01T08:39:47.866Z,87.78
2022-12-01T08:42:14.955Z,86.72
2022-12-01T08:44:41.856Z,87.91
2022-12-01T08:47:09.549Z,87.25
2022-12-01T08:49:37.045Z,86.86
2022-12-01T08:52:04.168Z,86.80
2022-12-01T08:54:31.107Z,86.97
2022-12-01T08:56:58.022Z,87.13
2022-12-01T08:59:24.961Z,87.09
2022-12-01T09:01:54.604Z,87.27
2022-12-01T09:04:26.160Z,86.99
2022-12-01T09:06:55.742Z,87.20
2022-12-01T09:09:25.692Z,86.32
2022-12-01T09:11:52.941Z,86.47
2022-12-01T09:14:21.410Z,86.64
2022-12-01T09:16:52.628Z,85.98
2022-12-01T09:19:24.713Z,86.59
2022-12-01T09:21:52.934Z,85.57
2022-12-01T09:24:19.876Z,86.33
2022-12-01T09:26:46.855Z,86.65
2022-12-01T09:29:15.742Z,86.38
2022-12-01T09:31:43.371Z,86.87
2022-12-01T09:34:20.340Z,85.75
2022-12-01T09:36:48.025Z,84.91
2022-12-01T09:39:19.019Z,85.58
2022-12-01T09:41:55.099Z,86.02
2022-12-01T09:44:41.087Z,84.61
2022-12-01T09:47:19.404Z,85.65
2022-12-01T09:49:46.443Z,85.38
2022-12-01T09:52:16.392Z,85.43
2022-12-01T09:54:43.326Z,84.43
2022-12-01T09:57:31.208Z,85.34
2022-12-01T10:00:00.158Z,84.69
2022-12-01T10:02:48.892Z,84.82
2022-12-01T10:05:21.307Z,84.64
2022-12-01T10:08:02.440Z,84.96
2022-12-01T10:10:36.721Z,84.64
2022-12-01T10:13:17.136Z,85.23
2022-12-01T10:15:52.226Z,85.12
2022-12-01T10:18:28.121Z,84.93
2022-12-01T10:21:05.628Z,85.03
2022-12-01T10:23:47.811Z,84.80
2022-12-01T10:26:26.433Z,85.13
2022-12-01T10:29:07.880Z,85.16
2022-12-01T10:31:45.700Z,84.88
2022-12-01T10:34:29.749Z,84.88
2022-12-01T10:36:58.267Z,85.28
2022-12-01T10:39:37.033Z,85.21
2022-12-01T10:42:34.835Z,84.22
2022-12-01T10:45:05.482Z,85.00
2022-12-01T10:47:32.945Z,84.33
2022-12-01T10:49:59.871Z,85.65
2022-12-01T10:52:38.586Z,84.52
2022-12-01T10:55:26.753Z,84.24
2022-12-01T10:58:00.845Z,84.44
2022-12-01T11:03:31.646Z,84.95
2022-12-01T11:06:01.665Z,84.87
2022-12-01T11:08:47.127Z,84.49
2022-12-01T11:11:36.464Z,85.45
2022-12-01T11:14:07.642Z,84.51
2022-12-01T11:16:43.781Z,84.55
2022-12-01T11:19:23.582Z,84.83
2022-12-01T11:21:56.448Z,84.02
2022-12-01T11:24:40.053Z,84.49
2022-12-01T11:27:19.364Z,84.18
2022-12-01T11:29:52.365Z,84.76
2022-12-01T11:32:21.553Z,84.94
2022-12-01T11:35:17.067Z,85.12
2022-12-01T11:38:20.986Z,85.19
2022-12-01T11:40:57.221Z,85.36
2022-12-01T11:43:30.738Z,85.26
2022-12-01T11:46:01.884Z,85.80
2022-12-01T11:48:31.622Z,85.86
2022-12-01T11:51:10.105Z,84.69
2022-12-01T11:53:40.111Z,84.49
2022-12-01T11:56:25.273Z,84.54
2022-12-01T11:58:57.476Z,84.52
2022-12-01T12:01:58.581Z,84.49
2022-12-01T12:04:55.984Z,85.06
2022-12-01T12:07:41.518Z,85.44
2022-12-01T12:10:35.437Z,85.33
2022-12-01T12:13:20.664Z,85.54
2022-12-01T12:16:19.842Z,86.03
2022-12-01T12:19:12.336Z,85.62
2022-12-01T12:22:05.253Z,85.31
2022-12-01T12:24:44.144Z,86.05
2022-12-01T12:27:13.780Z,85.63
2022-12-01T12:30:01.689Z,85.94
2022-12-01T12:32:47.144Z,85.95
2022-12-01T12:35:26.127Z,84.97
2022-12-01T12:38:11.338Z,85.48
2022-12-01T12:40:56.527Z,84.17
2022-12-01T12:43:40.129Z,85.26
2022-12-01T12:46:29.335Z,85.07
2022-12-01T12:49:26.265Z,84.88
2022-12-01T12:52:08.154Z,83.31
2022-12-01T12:54:57.665Z,83.78
2022-12-01T12:57:35.632Z,84.40
2022-12-01T13:00:08.901Z,84.86
2022-12-01T13:02:44.640Z,85.39
2022-12-01T13:05:17.630Z,85.09
2022-12-01T13:07:58.908Z,85.12
2022-12-01T13:11:10.612Z,85.58
2022-12-01T13:13:45.552Z,85.32
2022-12-01T13:16:17.619Z,84.74
2022-12-01T13:19:16.632Z,84.57
2022-12-01T13:21:47.150Z,84.84
2022-12-01T13:24:23.333Z,85.05
2022-12-01T13:26:59.446Z,84.98
2022-12-01T13:29:29.478Z,84.21
2022-12-01T13:31:56.520Z,84.07
2022-12-01T13:34:32.146Z,83.35
2022-12-01T13:36:59.358Z,84.13
2022-12-01T13:39:29.142Z,84.39
2022-12-01T13:42:19.347Z,83.59
2022-12-01T13:45:18.892Z,83.94
2022-12-01T13:47:54.603Z,83.80
2022-12-01T13:50:45.143Z,84.73
2022-12-01T13:53:23.164Z,83.94
2022-12-01T13:55:57.751Z,84.57
2022-12-01T13:58:41.265Z,84.12
2022-12-01T14:01:20.291Z,84.49
2022-12-01T14:04:03.848Z,84.66
2022-12-01T14:06:39.209Z,83.37
2022-12-01T14:09:21.179Z,84.73
2022-12-01T14:12:17.663Z,84.16
2022-12-01T14:15:20.837Z,84.26
2022-12-01T14:17:57.907Z,83.98
2022-12-01T14:20:25.152Z,84.28
2022-12-01T14:23:16.873Z,84.70
2022-12-01T14:26:10.112Z,84.99
2022-12-01T14:28:55.366Z,84.71
2022-12-01T14:31:23.915Z,85.18
2022-12-01T14:33:59.912Z,84.91
2022-12-01T14:36:32.713Z,84.81
2022-12-01T14:39:02.291Z,84.90
2022-12-01T14:41:33.955Z,85.02
2022-12-01T14:44:14.554Z,84.73
2022-12-01T14:46:49.279Z,84.12
2022-12-01T14:49:26.298Z,84.09
2022-12-01T14:52:05.157Z,83.67
2022-12-01T14:54:45.568Z,82.99
2022-12-01T14:57:17.262Z,84.20
2022-12-01T14:59:45.221Z,83.69
2022-12-01T15:02:12.917Z,83.87
2022-12-01T15:05:07.939Z,84.17
2022-12-01T15:07:40.355Z,83.57
2022-12-01T15:10:19.394Z,84.18
2022-12-01T15:12:47.465Z,84.16
2022-12-01T15:15:26.003Z,84.72
2022-12-01T15:17:55.705Z,83.48
2022-12-01T15:20:34.932Z,84.17
2022-12-01T15:23:08.939Z,83.23
2022-12-01T15:25:37.317Z,83.58
2022-12-01T15:28:16.843Z,83.53
2022-12-01T15:30:48.379Z,84.32
2022-12-01T15:33:28.421Z,83.72
2022-12-01T15:35:59.288Z,83.96
2022-12-01T15:38:30.127Z,84.47
2022-12-01T15:41:27.780Z,84.68
2022-12-01T15:44:05.711Z,84.46
2022-12-01T15:46:37.422Z,83.93
2022-12-01T15:49:48.635Z,84.36
2022-12-01T15:52:16.478Z,84.24
2022-12-01T15:54:48.917Z,84.16
2022-12-01T15:57:21.939Z,84.06
2022-12-01T15:59:57.145Z,84.49
2022-12-01T16:02:30.509Z,84.54
2022-12-01T16:05:27.779Z,83.91
2022-12-01T16:10:42.443Z,84.23
2022-12-01T16:13:35.711Z,83.92
2022-12-01T16:16:23.801Z,83.66
2022-12-01T16:18:57.184Z,84.50
2022-12-01T16:21:25.352Z,83.86
2022-12-01T16:24:04.945Z,84.14
2022-12-01T16:26:33.786Z,83.92
2022-12-01T16:29:00.880Z,84.51
2022-12-01T16:31:29.005Z,83.94
2022-12-01T16:34:18.467Z,84.00
2022-12-01T16:36:51.068Z,83.80
2022-12-01T16:39:18.398Z,84.05
2022-12-01T16:41:46.985Z,83.54
2022-12-01T16:44:30.607Z,83.88
2022-12-01T16:46:57.518Z,83.82
2022-12-01T16:49:24.472Z,84.02
2022-12-01T16:51:56.360Z,83.88
2022-12-01T16:54:23.991Z,84.18
2022-12-01T16:56:51.586Z,83.59
2022-12-01T16:59:18.615Z,83.68
2022-12-01T17:01:45.611Z,83.49
2022-12-01T17:04:12.628Z,84.14
2022-12-01T17:06:39.699Z,83.83
2022-12-01T17:09:06.646Z,84.51
2022-12-01T17:11:33.688Z,84.91
2022-12-01T17:14:00.598Z,84.54
2022-12-01T17:16:27.870Z,84.25
2022-12-01T17:18:54.864Z,84.22
2022-12-01T17:21:21.762Z,84.83
2022-12-01T17:23:48.772Z,84.48
2022-12-01T17:26:18.067Z,84.50
2022-12-01T17:28:45.091Z,83.88
2022-12-01T17:31:12.360Z,84.08
2022-12-01T17:33:39.933Z,84.11
2022-12-01T17:36:10.680Z,84.53
2022-12-01T17:38:39.242Z,84.04
2022-12-01T17:41:11.818Z,83.90
2022-12-01T17:43:40.090Z,84.01
2022-12-01T17:46:08.715Z,84.05
2022-12-01T17:48:53.452Z,83.66
2022-12-01T17:51:20.417Z,83.10
2022-12-01T17:53:47.381Z,83.47
2022-12-01T17:56:16.394Z,83.72
2022-12-01T17:58:43.644Z,83.46
2022-12-01T18:01:16.332Z,83.71
2022-12-01T18:03:44.164Z,84.18
2022-12-01T18:06:11.711Z,83.74
2022-12-01T18:08:39.914Z,84.25
2022-12-01T18:11:10.203Z,84.10
2022-12-01T18:13:38.538Z,83.57
2022-12-01T18:16:10.156Z,84.09
2022-12-01T18:18:38.279Z,84.16
2022-12-01T18:21:10.674Z,83.96
2022-12-01T18:23:38.113Z,84.51
2022-12-01T18:26:16.065Z,84.37
2022-12-01T18:28:44.347Z,83.87
2022-12-01T18:31:14.883Z,83.70
2022-12-01T18:33:44.151Z,83.88
2022-12-01T18:36:20.426Z,84.07
2022-12-01T18:38:47.693Z,84.07
2022-12-01T18:41:15.775Z,84.50
2022-12-01T18:43:43.183Z,84.61
2022-12-01T18:46:11.460Z,85.07
2022-12-01T18:48:38.707Z,85.03
2022-12-01T18:51:07.653Z,85.26
2022-12-01T18:53:35.191Z,84.32
2022-12-01T18:56:04.172Z,83.76
2022-12-01T18:58:32.090Z,84.25
2022-12-01T19:01:00.761Z,84.34
2022-12-01T19:03:32.071Z,84.79
2022-12-01T19:05:59.722Z,84.50
2022-12-01T19:08:27.309Z,84.84
2022-12-01T19:11:02.492Z,85.12
2022-12-01T19:13:31.524Z,84.42
2022-12-01T19:16:00.020Z,84.52
2022-12-01T19:18:29.600Z,84.35
2022-12-01T19:21:01.631Z,83.77
2022-12-01T19:23:30.400Z,84.53
2022-12-01T19:26:00.009Z,84.46
2022-12-01T19:28:30.063Z,84.55
2022-12-01T19:30:59.522Z,84.83
2022-12-01T19:33:30.274Z,84.95
2022-12-01T19:35:59.346Z,84.70
2022-12-01T19:38:28.099Z,84.60
2022-12-01T19:40:57.510Z,84.86
2022-12-01T19:43:26.515Z,84.92
2022-12-01T19:45:55.701Z,84.38
2022-12-01T19:48:24.883Z,84.08
2022-12-01T19:50:53.918Z,83.75
2022-12-01T19:53:22.943Z,83.61
2022-12-01T19:55:51.497Z,83.76
2022-12-01T19:58:20.610Z,84.33
2022-12-01T20:00:49.666Z,84.16
2022-12-01T20:03:18.312Z,83.89
2022-12-01T20:05:48.005Z,84.48
2022-12-01T20:08:16.272Z,83.98
2022-12-01T20:10:50.122Z,84.14
2022-12-01T20:13:18.846Z,84.16
2022-12-01T20:15:47.459Z,83.58
2022-12-01T20:18:16.973Z,84.39
2022-12-01T20:20:46.351Z,84.46
2022-12-01T20:23:15.563Z,84.53
2022-12-01T20:25:44.778Z,84.54
2022-12-01T20:28:13.701Z,84.26
2022-12-01T20:30:43.102Z,84.36
2022-12-01T20:33:11.775Z,84.64
2022-12-01T20:35:40.634Z,83.92
2022-12-01T20:38:09.576Z,84.12
2022-12-01T20:40:47.100Z,84.17
2022-12-01T20:43:16.765Z,84.31
2022-12-01T20:45:46.201Z,84.22
2022-12-01T20:48:15.032Z,84.22
2022-12-01T20:50:45.065Z,84.41
2022-12-01T20:53:14.007Z,85.00
2022-12-01T20:55:43.140Z,84.81
2022-12-01T20:58:15.910Z,85.19
2022-12-01T21:00:46.204Z,85.04
2022-12-01T21:03:14.464Z,84.29
2022-12-01T21:05:43.564Z,84.57
2022-12-01T21:08:14.102Z,84.49
2022-12-01T21:10:45.171Z,84.35
2022-12-01T21:13:44.967Z,84.42
2022-12-01T21:16:28.520Z,84.33
2022-12-01T21:19:06.438Z,84.39
2022-12-01T21:21:39.414Z,85.00
2022-12-01T21:24:06.274Z,84.47
2022-12-01T21:26:33.306Z,84.57
2022-12-01T21:29:01.243Z,84.51
2022-12-01T21:31:28.420Z,84.72
2022-12-01T21:33:56.135Z,84.59
2022-12-01T21:36:28.282Z,84.29
2022-12-01T21:39:03.820Z,84.46
2022-12-01T21:41:31.278Z,84.22
2022-12-01T21:44:08.036Z,84.06
2022-12-01T21:46:35.442Z,84.17
2022-12-01T21:49:02.882Z,84.50
2022-12-01T21:51:31.066Z,83.60
2022-12-01T21:53:58.774Z,84.29
2022-12-01T21:56:28.427Z,84.29
2022-12-01T21:58:59.659Z,83.61
2022-12-01T22:01:29.208Z,84.18
2022-12-01T22:04:02.016Z,85.40
2022-12-01T22:06:38.208Z,84.48
2022-12-01T22:09:33.312Z,84.66
2022-12-01T22:12:13.429Z,84.99
2022-12-01T22:14:40.341Z,83.69
2022-12-01T22:17:07.182Z,84.09
2022-12-01T22:19:38.070Z,84.01
2022-12-01T22:22:11.040Z,83.52
2022-12-01T22:24:42.635Z,84.19
2022-12-01T22:27:19.390Z,84.17
2022-12-01T22:29:49.001Z,83.15
2022-12-01T22:32:15.852Z,83.41
2022-12-01T22:34:49.673Z,84.02
2022-12-01T22:37:31.253Z,85.40
2022-12-01T22:39:58.144Z,84.91
2022-12-01T22:42:33.331Z,84.77
2022-12-01T22:45:14.964Z,85.13
2022-12-01T22:47:41.850Z,84.73
2022-12-01T22:50:26.816Z,85.12
2022-12-01T22:52:58.975Z,84.63
2022-12-01T22:55:25.905Z,84.63
2022-12-01T22:57:53.054Z,84.02
2022-12-01T23:00:23.239Z,83.66
2022-12-01T23:02:53.377Z,84.24
2022-12-01T23:05:29.380Z,84.84
2022-12-01T23:07:57.713Z,83.73
2022-12-01T23:10:30.481Z,83.15
2022-12-01T23:13:09.058Z,83.07
2022-12-01T23:15:39.605Z,83.02
2022-12-01T23:18:18.811Z,82.16
2022-12-01T23:20:54.638Z,82.20
2022-12-01T23:23:27.302Z,82.62
2022-12-01T23:25:54.886Z,81.92
2022-12-01T23:28:22.578Z,81.23
2022-12-01T23:30:53.093Z,81.50
2022-12-01T23:33:22.622Z,82.05
2022-12-01T23:36:15.265Z,81.43
2022-12-01T23:38:48.213Z,81.57
2022-12-01T23:41:36.009Z,82.01
2022-12-01T23:44:14.951Z,82.18
2022-12-01T23:46:42.117Z,82.21
2022-12-01T23:49:16.011Z,82.83
2022-12-01T23:52:02.966Z,82.38
2022-12-01T23:54:33.511Z,81.98
2022-12-01T23:57:10.984Z,82.30
2022-12-01T23:59:38.455Z,82.32
